Time;durP1;ratioP1;P1;durP2;ratioP2;P2;SDS_P1;SDS_P2;PMS_P1;PMS_P2;Temp;Humidity;BMP_temperature;BMP_pressure;BME280_temperature;BME280_humidity;BME280_pressure;Samples;Min_cycle;Max_cycle;Signal;HPM_P1;HPM_P2
2021/08/27 03:45:38;;;;;;;0.15;0.15;;;8.30;99.90;;;;;;5093797;23;20449;-96
2021/08/27 03:56:28;;;;;;;0.10;0.10;;;8.30;99.90;;;;;;5912362;23;20378;-93
2021/08/27 03:59:12;;;;;;;0.00;0.00;;;8.30;99.90;;;;;;4925902;29;20429;-95
2021/08/27 05:39:27;;;;;;;0.10;0.10;;;8.50;99.90;;;;;;5311279;23;20446;-95
2021/08/27 05:42:04;;;;;;;0.10;0.10;;;8.40;99.90;;;;;;4946287;29;20437;-96
2021/08/27 05:45:12;;;;;;;0.10;0.10;;;8.50;99.90;;;;;;4950631;29;20432;-96
2021/08/27 05:47:41;;;;;;;0.20;0.20;;;8.50;99.90;;;;;;4950085;29;20433;-93
2021/08/27 05:50:11;;;;;;;0.10;0.10;;;8.50;99.90;;;;;;4957942;28;20473;-93
2021/08/27 05:52:38;;;;;;;0.10;0.10;;;8.50;99.90;;;;;;4958385;29;20406;-93
2021/08/27 05:55:07;;;;;;;0.10;0.10;;;8.50;99.90;;;;;;4955641;23;20437;-95
2021/08/27 05:57:34;;;;;;;0.20;0.20;;;8.50;99.90;;;;;;4947457;29;20422;-92
2021/08/27 06:00:05;;;;;;;0.17;0.17;;;8.50;99.90;;;;;;4943346;29;20445;-92
2021/08/27 06:02:32;;;;;;;0.80;0.40;;;8.50;99.90;;;;;;4944266;29;20449;-93
2021/08/27 06:05:00;;;;;;;0.55;0.55;;;8.50;99.90;;;;;;4944834;29;20929;-93
2021/08/27 06:07:45;;;;;;;0.20;0.20;;;8.60;99.90;;;;;;4943779;29;20410;-93
2021/08/27 06:10:42;;;;;;;0.40;0.40;;;8.50;99.90;;;;;;4946616;29;20434;-95
2021/08/27 06:13:23;;;;;;;0.37;0.37;;;8.60;99.90;;;;;;5281781;23;20433;-96
2021/08/27 06:16:03;;;;;;;1.02;0.28;;;8.60;99.90;;;;;;4946626;29;20426;-95
2021/08/27 06:19:05;;;;;;;0.20;0.20;;;8.80;99.90;;;;;;4949924;28;20440;-94
2021/08/27 08:12:39;;;;;;;0.30;0.30;;;10.70;99.90;;;;;;4881036;29;20489;-96
2021/08/27 10:23:17;;;;;;;;;;;;;;;;;;;;;
2021/08/27 10:33:50;;;;;;;0.20;0.20;;;12.80;99.90;;;;;;4987272;23;20511;-96
2021/08/27 10:37:05;;;;;;;;;;;;;;;;;;;;;
2021/08/27 10:40:48;;;;;;;;;;;;;;;;;;;;;
2021/08/27 10:43:41;;;;;;;0.50;0.50;;;12.50;99.90;;;;;;4951097;23;20455;-96
2021/08/27 10:47:41;;;;;;;;;;;;;;;;;;;;;
2021/08/27 10:55:17;;;;;;;0.10;0.10;;;11.90;99.90;;;;;;4892537;29;20490;-96
2021/08/27 10:59:06;;;;;;;;;;;;;;;;;;;;;
2021/08/27 11:04:53;;;;;;;0.10;0.10;;;11.90;99.90;;;;;;5072512;23;20443;-95
2021/08/27 11:08:28;;;;;;;;;;;;;;;;;;;;;
2021/08/27 11:11:53;;;;;;;0.15;0.15;;;12.10;99.90;;;;;;4944851;29;20427;-96
2021/08/27 11:15:38;;;;;;;0.10;0.10;;;12.30;99.90;;;;;;5079579;23;20458;-96
2021/08/27 11:18:38;;;;;;;0.10;0.10;;;12.50;99.90;;;;;;4931765;29;20439;-96
2021/08/27 11:21:45;;;;;;;0.10;0.10;;;12.30;99.90;;;;;;4930501;29;20420;-95
2021/08/27 11:24:36;;;;;;;0.10;0.10;;;12.30;99.90;;;;;;4919039;29;20488;-95
2021/08/27 11:27:26;;;;;;;0.20;0.20;;;12.40;99.90;;;;;;4927104;29;20433;-94
2021/08/27 11:30:38;;;;;;;0.10;0.10;;;12.40;99.90;;;;;;4882907;29;20508;-95
2021/08/27 11:34:19;;;;;;;;;;;;;;;;;;;;;
2021/08/27 11:36:49;;;;;;;0.20;0.20;;;12.50;99.90;;;;;;4951664;23;20449;-95
2021/08/27 11:39:22;;;;;;;0.10;0.10;;;12.60;99.90;;;;;;4959271;29;20516;-95
2021/08/27 11:42:07;;;;;;;0.10;0.10;;;12.80;99.90;;;;;;3479799;23;20646;-95
2021/08/27 11:44:42;;;;;;;0.30;0.30;;;12.90;99.90;;;;;;4904561;29;20434;-95
2021/08/27 11:47:21;;;;;;;;;;;;;;;;;;;;;
2021/08/27 11:49:58;;;;;;;0.20;0.20;;;13.50;99.90;;;;;;4903635;29;20438;-96
2021/08/27 11:52:30;;;;;;;0.17;0.17;;;14.10;99.90;;;;;;4903406;29;20430;-96
2021/08/27 11:55:06;;;;;;;0.30;0.30;;;14.30;99.90;;;;;;4899255;29;21006;-95
2021/08/27 11:57:35;;;;;;;0.10;0.10;;;14.30;99.90;;;;;;4899347;29;20444;-95
2021/08/27 12:00:11;;;;;;;0.20;0.20;;;14.40;99.90;;;;;;4898294;29;20463;-96
2021/08/27 12:02:38;;;;;;;0.20;0.20;;;14.80;99.90;;;;;;4899112;29;20442;-95
2021/08/27 12:05:12;;;;;;;0.20;0.20;;;14.50;99.90;;;;;;4901328;29;20433;-93
2021/08/27 12:08:11;;;;;;;0.20;0.20;;;14.00;99.90;;;;;;4902471;29;20927;-94
2021/08/27 12:10:43;;;;;;;0.20;0.20;;;13.40;99.90;;;;;;4826053;29;20463;-94
2021/08/27 12:13:11;;;;;;;0.13;0.13;;;13.20;99.90;;;;;;4827819;29;20800;-95
2021/08/27 12:15:43;;;;;;;0.28;0.28;;;13.00;99.90;;;;;;4827688;29;20442;-94
2021/08/27 12:18:13;;;;;;;0.70;0.70;;;12.80;99.90;;;;;;4827424;29;20486;-96
2021/08/27 12:20:49;;;;;;;0.10;0.10;;;12.80;99.90;;;;;;4826114;29;20441;-95
2021/08/27 12:23:21;;;;;;;0.80;0.50;;;13.10;99.90;;;;;;4826333;29;20453;-95
2021/08/27 12:26:07;;;;;;;0.20;0.20;;;13.90;99.90;;;;;;4826037;29;20442;-96
2021/08/27 12:28:38;;;;;;;0.43;0.43;;;14.80;99.90;;;;;;4826407;29;20454;-95
2021/08/27 12:31:07;;;;;;;0.17;0.17;;;15.00;99.90;;;;;;4826308;29;20859;-94
2021/08/27 12:33:58;;;;;;;0.10;0.10;;;15.10;99.90;;;;;;4827234;29;20534;-94
2021/08/27 12:36:26;;;;;;;0.20;0.20;;;15.00;99.90;;;;;;4827569;29;20938;-96
2021/08/27 12:38:57;;;;;;;0.20;0.20;;;14.40;99.90;;;;;;4833987;29;20457;-96
2021/08/27 12:41:36;;;;;;;0.20;0.20;;;14.20;99.90;;;;;;4816965;29;20483;-95
2021/08/27 12:44:28;;;;;;;0.15;0.15;;;13.90;99.90;;;;;;4952281;23;20443;-96
2021/08/27 12:50:16;;;;;;;0.20;0.20;;;13.70;99.90;;;;;;4916130;29;20510;-96
2021/08/27 12:53:11;;;;;;;0.10;0.10;;;13.70;99.90;;;;;;4910343;29;20425;-96
2021/08/27 12:55:38;;;;;;;0.20;0.20;;;13.60;99.90;;;;;;4908691;29;20454;-94
2021/08/27 12:58:07;;;;;;;0.20;0.20;;;13.40;99.90;;;;;;4905069;29;20510;-96
2021/08/27 13:00:35;;;;;;;0.10;0.10;;;13.40;99.90;;;;;;4903409;29;20438;-96
2021/08/27 13:03:12;;;;;;;0.30;0.30;;;13.50;99.90;;;;;;4904577;29;20671;-96
2021/08/27 13:05:46;;;;;;;0.40;0.40;;;13.50;99.90;;;;;;4904702;29;20459;-95
2021/08/27 13:08:39;;;;;;;0.10;0.10;;;13.50;99.90;;;;;;4902182;29;20929;-96
2021/08/27 13:11:17;;;;;;;0.10;0.10;;;13.60;99.90;;;;;;4866943;29;20452;-93
2021/08/27 13:13:46;;;;;;;0.10;0.10;;;14.20;99.90;;;;;;4880601;29;20499;-95
2021/08/27 13:16:16;;;;;;;0.10;0.10;;;15.40;99.90;;;;;;4880593;29;20463;-95
2021/08/27 13:18:56;;;;;;;0.10;0.10;;;16.50;99.90;;;;;;4880620;29;20436;-95
2021/08/27 13:21:35;;;;;;;0.10;0.10;;;17.20;99.90;;;;;;4880999;29;20432;-93
2021/08/27 13:24:10;;;;;;;0.20;0.20;;;16.90;99.90;;;;;;4880424;29;20536;-95
2021/08/27 13:26:39;;;;;;;0.10;0.10;;;15.90;99.90;;;;;;4880466;29;20512;-94
2021/08/27 13:29:07;;;;;;;0.30;0.30;;;14.80;99.90;;;;;;4880950;29;20493;-95
2021/08/27 13:31:35;;;;;;;0.10;0.10;;;14.00;99.90;;;;;;4880130;29;20424;-95
2021/08/27 13:34:02;;;;;;;0.70;0.40;;;13.60;99.90;;;;;;4880441;29;20437;-94
2021/08/27 13:36:30;;;;;;;0.10;0.10;;;13.30;99.90;;;;;;4880130;29;20436;-96
2021/08/27 13:38:57;;;;;;;0.10;0.10;;;13.10;99.90;;;;;;4880873;29;20531;-94
2021/08/27 13:41:29;;;;;;;0.20;0.20;;;13.10;99.90;;;;;;4888116;29;20435;-95
2021/08/27 13:47:01;;;;;;;0.20;0.20;;;13.10;99.90;;;;;;4900931;29;20427;-93
2021/08/27 13:49:35;;;;;;;0.10;0.10;;;12.90;99.90;;;;;;4900277;29;20453;-93
2021/08/27 13:52:16;;;;;;;0.10;0.10;;;12.90;99.90;;;;;;4900773;29;20572;-94
2021/08/27 13:54:46;;;;;;;0.60;0.50;;;13.10;99.90;;;;;;4901704;29;20839;-94
2021/08/27 13:57:32;;;;;;;0.10;0.10;;;13.40;99.90;;;;;;4902353;29;20426;-94
2021/08/27 14:00:05;;;;;;;0.10;0.10;;;13.60;99.90;;;;;;4901197;29;20441;-94
2021/08/27 14:02:59;;;;;;;0.10;0.10;;;13.50;99.90;;;;;;4889438;29;20441;-96
2021/08/27 14:05:49;;;;;;;0.10;0.10;;;13.00;99.90;;;;;;4889127;29;20477;-95
2021/08/27 14:08:20;;;;;;;0.20;0.20;;;12.50;99.90;;;;;;4903139;29;20442;-96
2021/08/27 14:11:06;;;;;;;;;;;;;;;;;;;;;
2021/08/27 14:13:45;;;;;;;0.20;0.20;;;11.90;99.90;;;;;;4907969;29;20442;-95
2021/08/27 14:19:45;;;;;;;0.10;0.10;;;11.60;99.90;;;;;;4904828;29;20426;-94
2021/08/27 14:22:25;;;;;;;0.13;0.13;;;11.70;99.90;;;;;;4903370;29;20496;-96
2021/08/27 14:25:24;;;;;;;0.10;0.10;;;11.90;99.90;;;;;;4905493;29;20824;-96
2021/08/27 14:27:51;;;;;;;0.20;0.20;;;12.70;99.90;;;;;;4906020;29;20450;-96
2021/08/27 14:30:20;;;;;;;0.10;0.10;;;13.70;99.90;;;;;;4909247;29;20455;-94
2021/08/27 14:32:47;;;;;;;0.10;0.10;;;14.60;99.90;;;;;;4919277;29;20438;-95
2021/08/27 14:35:15;;;;;;;0.20;0.20;;;14.70;99.90;;;;;;4910886;29;20504;-96
2021/08/27 14:37:42;;;;;;;0.10;0.10;;;14.60;99.90;;;;;;4889463;29;20502;-96
2021/08/27 14:40:11;;;;;;;0.20;0.20;;;14.40;99.90;;;;;;4907682;29;20498;-93
2021/08/27 14:42:42;;;;;;;14.30;0.50;;;14.60;99.90;;;;;;4905111;29;20449;-95
2021/08/27 14:45:23;;;;;;;0.30;0.30;;;14.70;99.90;;;;;;4902141;29;20530;-94
2021/08/27 14:47:50;;;;;;;0.10;0.10;;;15.20;99.90;;;;;;4906105;29;20551;-95
2021/08/27 14:50:20;;;;;;;0.20;0.20;;;14.80;99.90;;;;;;4903228;29;20459;-95
2021/08/27 14:52:47;;;;;;;0.10;0.10;;;14.70;99.90;;;;;;4887118;29;20431;-94
2021/08/27 14:55:14;;;;;;;0.20;0.20;;;15.30;99.90;;;;;;4900231;29;20499;-96
2021/08/27 14:57:47;;;;;;;0.30;0.30;;;15.70;99.90;;;;;;4901683;29;20858;-96
2021/08/27 15:00:15;;;;;;;0.15;0.15;;;16.40;99.90;;;;;;4885128;29;20518;-96
2021/08/27 15:02:50;;;;;;;0.20;0.10;;;17.00;99.90;;;;;;4901963;29;20434;-96
2021/08/27 15:05:22;;;;;;;0.10;0.10;;;17.40;99.90;;;;;;4900351;29;20438;-96
2021/08/27 15:07:51;;;;;;;0.40;0.40;;;16.70;99.90;;;;;;4902677;29;20435;-95
2021/08/27 15:10:22;;;;;;;0.43;0.43;;;15.60;99.90;;;;;;4901754;29;20469;-96
2021/08/27 15:13:28;;;;;;;0.30;0.30;;;15.50;99.90;;;;;;4903739;29;20522;-96
2021/08/27 15:16:24;;;;;;;0.20;0.20;;;15.40;99.90;;;;;;4892246;29;20435;-96
2021/08/27 15:19:09;;;;;;;0.50;0.50;;;15.80;99.90;;;;;;4876996;29;20446;-96
2021/08/27 15:21:44;;;;;;;0.32;0.25;;;15.80;99.90;;;;;;4902982;29;20423;-96
2021/08/27 15:24:15;;;;;;;0.20;0.20;;;15.50;99.90;;;;;;4902726;29;20510;-96
2021/08/27 15:26:58;;;;;;;0.10;0.10;;;15.10;99.90;;;;;;4901645;29;20445;-95
2021/08/27 15:29:39;;;;;;;0.90;0.50;;;14.60;99.90;;;;;;4887146;29;20787;-95
2021/08/27 15:32:08;;;;;;;0.10;0.10;;;14.20;99.90;;;;;;4903910;29;20431;-96
2021/08/27 15:34:53;;;;;;;0.20;0.20;;;14.00;99.90;;;;;;4867575;29;20487;-96
2021/08/27 15:37:21;;;;;;;0.10;0.10;;;14.30;99.90;;;;;;4865317;29;20434;-95
2021/08/27 15:39:49;;;;;;;0.40;0.40;;;14.00;99.90;;;;;;4865578;29;20945;-96
2021/08/27 15:42:18;;;;;;;0.37;0.37;;;13.80;99.90;;;;;;4866409;29;20505;-95
2021/08/27 15:44:46;;;;;;;0.10;0.10;;;13.60;99.90;;;;;;4867905;29;20996;-96
2021/08/27 15:47:28;;;;;;;0.40;0.40;;;13.30;99.90;;;;;;4860636;29;20958;-95
2021/08/27 15:50:00;;;;;;;0.10;0.10;;;13.10;99.90;;;;;;4865476;29;20768;-95
2021/08/27 15:52:43;;;;;;;0.20;0.20;;;12.80;99.90;;;;;;4877444;29;20430;-95
2021/08/27 15:55:17;;;;;;;0.10;0.10;;;12.60;99.90;;;;;;4903503;29;20483;-96
2021/08/27 15:57:50;;;;;;;0.40;0.40;;;12.50;99.90;;;;;;4905763;29;20431;-95
2021/08/27 16:00:21;;;;;;;0.40;0.40;;;12.30;99.90;;;;;;4907411;29;20430;-95
2021/08/27 16:02:58;;;;;;;0.40;0.40;;;12.10;99.90;;;;;;4890151;29;20446;-96
2021/08/27 16:05:25;;;;;;;0.70;0.50;;;11.90;99.90;;;;;;4907211;29;20776;-96
2021/08/27 16:07:54;;;;;;;0.20;0.20;;;11.60;99.90;;;;;;4906019;29;20522;-96
2021/08/27 16:10:23;;;;;;;0.28;0.28;;;11.50;99.90;;;;;;4905464;29;20443;-95
2021/08/27 16:12:52;;;;;;;0.20;0.20;;;11.40;99.90;;;;;;4904349;29;20478;-95
2021/08/27 16:15:51;;;;;;;0.10;0.10;;;11.40;99.90;;;;;;4914027;29;20434;-95
2021/08/27 16:18:31;;;;;;;0.20;0.20;;;11.30;99.90;;;;;;4923899;29;20498;-95
2021/08/27 16:21:07;;;;;;;0.20;0.20;;;11.20;99.90;;;;;;4910383;29;20450;-96
2021/08/27 16:23:57;;;;;;;0.60;0.60;;;11.20;99.90;;;;;;4906157;29;20463;-96
2021/08/27 16:26:24;;;;;;;0.10;0.10;;;11.10;99.90;;;;;;4906012;29;20445;-95
2021/08/27 16:29:06;;;;;;;0.60;0.60;;;11.10;99.90;;;;;;4905299;29;20475;-95
2021/08/27 16:32:36;;;;;;;;;;;;;;;;;;;;;
2021/08/27 16:46:45;;;;;;;0.30;0.30;;;10.60;99.90;;;;;;5171549;23;20966;-96
2021/08/27 16:49:37;;;;;;;6.60;0.90;;;10.60;99.90;;;;;;4935091;29;20894;-96
2021/08/27 16:52:10;;;;;;;0.40;0.40;;;10.50;99.90;;;;;;4950137;29;20433;-93
2021/08/27 16:54:46;;;;;;;0.30;0.30;;;10.50;99.90;;;;;;4951270;28;20512;-96
2021/08/27 16:58:20;;;;;;;0.10;0.10;;;10.50;99.90;;;;;;4953550;29;20461;-96
2021/08/27 17:07:14;;;;;;;0.20;0.20;;;10.40;99.90;;;;;;4938846;28;20447;-95
2021/08/27 17:16:29;;;;;;;0.82;0.32;;;10.40;99.90;;;;;;4965406;29;20405;-96
2021/08/27 17:19:05;;;;;;;0.17;0.17;;;10.30;99.90;;;;;;4945565;29;20432;-95
2021/08/27 17:21:58;;;;;;;0.20;0.20;;;10.30;99.90;;;;;;4965121;29;20393;-95
2021/08/27 17:24:29;;;;;;;0.50;0.50;;;10.20;99.90;;;;;;4950130;29;20960;-96
2021/08/27 17:26:56;;;;;;;0.10;0.10;;;10.20;99.90;;;;;;4948663;29;20426;-96
2021/08/27 17:29:25;;;;;;;0.30;0.30;;;10.10;99.90;;;;;;4963690;29;20460;-95
2021/08/27 17:32:39;;;;;;;0.20;0.20;;;10.20;99.90;;;;;;4942960;29;20465;-96
2021/08/27 17:36:09;;;;;;;;;;;;;;;;;;;;;
2021/08/27 17:39:28;;;;;;;;;;;;;;;;;;;;;
2021/08/27 17:42:26;;;;;;;0.20;0.20;;;10.10;99.90;;;;;;4809814;29;20455;-95
2021/08/27 17:46:17;;;;;;;;;;;;;;;;;;;;;
2021/08/27 17:49:24;;;;;;;;;;;;;;;;;;;;;
2021/08/27 17:53:14;;;;;;;0.10;0.10;;;10.00;99.90;;;;;;4771665;30;20439;-95
2021/08/27 17:59:22;;;;;;;;;;;;;;;;;;;;;
2021/08/27 18:04:39;;;;;;;0.15;0.15;;;9.80;99.90;;;;;;5159139;23;20914;-96
2021/08/27 18:08:08;;;;;;;;;;;;;;;;;;;;;
2021/08/27 18:15:25;;;;;;;;;;;;;;;;;;;;;
2021/08/27 18:25:22;;;;;;;1.60;0.40;;;9.60;99.90;;;;;;4827181;29;20469;-94
2021/08/27 18:28:12;;;;;;;0.10;0.10;;;9.70;99.90;;;;;;4866565;23;20512;-93
2021/08/27 18:30:54;;;;;;;0.28;0.28;;;9.70;99.90;;;;;;4942504;29;20461;-94
2021/08/27 18:33:21;;;;;;;0.10;0.10;;;9.70;99.90;;;;;;4941860;29;20966;-95
2021/08/27 18:36:28;;;;;;;0.13;0.13;;;9.60;99.90;;;;;;4944767;29;20433;-95
2021/08/27 18:39:20;;;;;;;0.30;0.30;;;9.60;99.90;;;;;;4868944;29;20436;-96
2021/08/27 18:41:58;;;;;;;0.40;0.40;;;9.60;99.90;;;;;;4867023;29;20436;-95
2021/08/27 18:44:56;;;;;;;0.30;0.30;;;9.60;99.90;;;;;;4865217;29;20520;-95
2021/08/27 18:47:45;;;;;;;;;;;;;;;;;;;;;
2021/08/27 18:51:01;;;;;;;0.10;0.10;;;9.60;99.90;;;;;;4872276;29;20503;-96
2021/08/27 18:54:00;;;;;;;0.30;0.30;;;9.60;99.90;;;;;;4844826;29;20436;-96
2021/08/27 18:59:48;;;;;;;0.50;0.30;;;9.60;99.90;;;;;;4881744;29;20972;-96
2021/08/27 19:02:30;;;;;;;0.20;0.20;;;9.60;99.90;;;;;;4865250;29;20437;-96
2021/08/27 19:05:11;;;;;;;0.40;0.40;;;9.60;99.90;;;;;;4864858;29;20519;-95
2021/08/27 19:07:41;;;;;;;0.22;0.22;;;9.60;99.90;;;;;;4864444;29;20933;-95
2021/08/27 19:10:53;;;;;;;0.20;0.20;;;9.60;99.90;;;;;;4865726;29;20439;-95
2021/08/27 19:13:37;;;;;;;0.20;0.20;;;9.50;99.90;;;;;;4853996;29;20424;-94
2021/08/27 19:16:20;;;;;;;0.10;0.10;;;9.60;99.90;;;;;;4912041;29;20433;-95
2021/08/27 19:18:52;;;;;;;0.20;0.20;;;9.60;99.90;;;;;;4944749;29;20425;-95
2021/08/27 19:21:22;;;;;;;0.43;0.43;;;9.60;99.90;;;;;;4944204;29;20437;-95
2021/08/27 19:24:37;;;;;;;0.80;0.60;;;9.60;99.90;;;;;;4945728;29;20525;-95
2021/08/27 19:27:34;;;;;;;0.40;0.40;;;9.60;99.90;;;;;;4892487;29;20483;-93
2021/08/27 19:30:25;;;;;;;0.30;0.30;;;9.50;99.90;;;;;;4816667;29;20433;-93
2021/08/27 19:33:01;;;;;;;0.30;0.30;;;9.60;99.90;;;;;;4813576;29;20506;-96
2021/08/27 19:36:16;;;;;;;;;;;;;;;;;;;;;
2021/08/27 19:42:56;;;;;;;;;;;;;;;;;;;;;
2021/08/27 19:46:11;;;;;;;0.30;0.30;;;9.60;99.90;;;;;;4805255;29;20492;-94
2021/08/27 19:49:24;;;;;;;;;;;;;;;;;;;;;
2021/08/27 19:59:41;;;;;;;0.40;0.40;;;9.60;99.90;;;;;;5107875;23;20484;-94
2021/08/27 20:03:04;;;;;;;0.37;0.37;;;9.60;99.90;;;;;;4940915;29;20483;-94
2021/08/27 20:06:23;;;;;;;;;;;;;;;;;;;;;
2021/08/27 20:10:01;;;;;;;0.10;0.10;;;9.60;99.90;;;;;;5001921;23;20469;-95
2021/08/27 20:12:52;;;;;;;0.52;0.52;;;9.50;99.90;;;;;;4945592;29;20862;-95
2021/08/27 20:15:35;;;;;;;0.30;0.30;;;9.60;99.90;;;;;;4908939;29;20429;-94
2021/08/27 20:22:38;;;;;;;0.20;0.20;;;9.60;99.90;;;;;;4939828;29;20420;-94
2021/08/27 20:25:30;;;;;;;0.15;0.15;;;9.60;99.90;;;;;;4929666;29;20521;-95
2021/08/27 20:28:20;;;;;;;0.55;0.40;;;9.50;99.90;;;;;;4939871;29;20895;-94
2021/08/27 20:31:16;;;;;;;0.45;0.45;;;9.50;99.90;;;;;;4942039;29;20764;-94
2021/08/27 20:33:49;;;;;;;0.70;0.70;;;9.50;99.90;;;;;;4870087;29;20492;-94
2021/08/27 20:36:21;;;;;;;0.10;0.10;;;9.40;99.90;;;;;;4868863;29;20436;-95
2021/08/27 20:38:51;;;;;;;0.45;0.45;;;9.40;99.90;;;;;;4868326;29;20956;-94
2021/08/27 20:41:21;;;;;;;0.25;0.25;;;9.40;99.90;;;;;;4866097;29;20433;-95
2021/08/27 20:44:04;;;;;;;0.20;0.20;;;9.40;99.90;;;;;;4865867;29;20433;-95
2021/08/27 20:46:37;;;;;;;0.50;0.50;;;9.40;99.90;;;;;;4865841;29;20432;-94
2021/08/27 20:49:04;;;;;;;0.22;0.22;;;9.30;99.90;;;;;;4865849;29;20436;-94
2021/08/27 20:51:31;;;;;;;0.20;0.20;;;9.40;99.90;;;;;;4866144;29;20499;-93
2021/08/27 20:53:58;;;;;;;0.10;0.10;;;9.40;99.90;;;;;;4866780;29;20440;-94
2021/08/27 20:56:26;;;;;;;0.65;0.65;;;9.40;99.90;;;;;;4865528;29;20508;-93
2021/08/27 20:58:53;;;;;;;0.20;0.20;;;9.40;99.90;;;;;;4865038;29;20436;-94
2021/08/27 21:01:20;;;;;;;10.70;0.50;;;9.40;99.90;;;;;;4866053;29;20433;-94
2021/08/27 21:03:47;;;;;;;0.30;0.30;;;9.50;99.90;;;;;;4866039;29;20519;-95
2021/08/27 21:06:18;;;;;;;0.40;0.40;;;9.40;99.90;;;;;;4866727;29;20496;-93
2021/08/27 21:08:46;;;;;;;0.20;0.20;;;9.50;99.90;;;;;;4864816;29;20464;-93
2021/08/27 21:11:13;;;;;;;0.22;0.22;;;9.40;99.90;;;;;;4920172;29;20966;-94
2021/08/27 21:13:40;;;;;;;0.17;0.17;;;9.40;99.90;;;;;;4937543;29;20438;-95
2021/08/27 21:16:13;;;;;;;0.40;0.30;;;9.40;99.90;;;;;;4938905;29;20435;-93
2021/08/27 21:18:40;;;;;;;0.17;0.17;;;9.50;99.90;;;;;;4939143;29;20436;-94
2021/08/27 21:21:07;;;;;;;0.22;0.22;;;9.50;99.90;;;;;;4940149;29;20949;-94
2021/08/27 21:23:37;;;;;;;0.32;0.32;;;9.60;99.90;;;;;;4939295;29;20431;-94
2021/08/27 21:26:05;;;;;;;0.65;0.43;;;9.50;99.90;;;;;;4941380;29;20443;-93
2021/08/27 21:28:32;;;;;;;0.15;0.15;;;9.50;99.90;;;;;;4939518;29;20427;-94
2021/08/27 21:30:59;;;;;;;0.47;0.40;;;9.50;99.90;;;;;;4957099;29;20432;-93
2021/08/27 21:34:11;;;;;;;;;;;;;;;;;;;;;
2021/08/27 22:33:49;;;;;;;0.10;0.10;;;9.40;99.90;;;;;;4984042;23;20446;-95
2021/08/27 22:36:59;;;;;;;0.20;0.20;;;9.50;99.90;;;;;;4871516;29;20445;-96
2021/08/27 23:42:10;;;;;;;0.65;0.45;;;9.40;99.90;;;;;;4963722;29;20494;-96
